sensor_id;sensor_type;location;lat;lon;timestamp;P1;durP1;ratioP1;P2;durP2;ratioP2
12122;SDS011;6125;59.628;17.852;2024-02-15T00:02:15;23.30;;;10.13;;
12122;SDS011;6125;59.628;17.852;2024-02-15T00:04:50;34.53;;;11.23;;
12122;SDS011;6125;59.628;17.852;2024-02-15T00:07:20;28.43;;;10.83;;
12122;SDS011;6125;59.628;17.852;2024-02-15T00:09:49;24.23;;;9.47;;
12122;SDS011;6125;59.628;17.852;2024-02-15T00:12:24;25.43;;;9.77;;
12122;SDS011;6125;59.628;17.852;2024-02-15T00:14:52;23.07;;;9.03;;
12122;SDS011;6125;59.628;17.852;2024-02-15T00:17:31;21.47;;;9.80;;
12122;SDS011;6125;59.628;17.852;2024-02-15T00:20:02;18.23;;;9.77;;
12122;SDS011;6125;59.628;17.852;2024-02-15T00:22:44;19.23;;;10.03;;
12122;SDS011;6125;59.628;17.852;2024-02-15T00:25:12;25.77;;;10.77;;
12122;SDS011;6125;59.628;17.852;2024-02-15T00:27:40;23.43;;;10.33;;
12122;SDS011;6125;59.628;17.852;2024-02-15T00:30:15;23.57;;;9.93;;
12122;SDS011;6125;59.628;17.852;2024-02-15T00:32:43;17.43;;;8.90;;
12122;SDS011;6125;59.628;17.852;2024-02-15T00:35:13;20.23;;;9.60;;
12122;SDS011;6125;59.628;17.852;2024-02-15T00:37:50;18.63;;;9.27;;
12122;SDS011;6125;59.628;17.852;2024-02-15T00:40:18;18.30;;;9.03;;
12122;SDS011;6125;59.628;17.852;2024-02-15T00:42:47;20.13;;;9.27;;
12122;SDS011;6125;59.628;17.852;2024-02-15T00:45:22;22.17;;;9.77;;
12122;SDS011;6125;59.628;17.852;2024-02-15T00:47:50;20.07;;;9.57;;
12122;SDS011;6125;59.628;17.852;2024-02-15T00:50:21;24.53;;;10.20;;
12122;SDS011;6125;59.628;17.852;2024-02-15T00:52:57;22.83;;;10.17;;
12122;SDS011;6125;59.628;17.852;2024-02-15T00:55:25;23.17;;;9.80;;
12122;SDS011;6125;59.628;17.852;2024-02-15T00:57:53;19.97;;;9.13;;
12122;SDS011;6125;59.628;17.852;2024-02-15T01:00:28;17.70;;;8.70;;
12122;SDS011;6125;59.628;17.852;2024-02-15T01:02:56;18.57;;;8.37;;
12122;SDS011;6125;59.628;17.852;2024-02-15T01:05:26;22.73;;;9.13;;
12122;SDS011;6125;59.628;17.852;2024-02-15T01:08:02;18.53;;;8.93;;
12122;SDS011;6125;59.628;17.852;2024-02-15T01:10:30;17.43;;;8.10;;
12122;SDS011;6125;59.628;17.852;2024-02-15T01:13:00;19.63;;;8.60;;
12122;SDS011;6125;59.628;17.852;2024-02-15T01:15:35;16.87;;;7.87;;
12122;SDS011;6125;59.628;17.852;2024-02-15T01:18:05;18.30;;;8.07;;
12122;SDS011;6125;59.628;17.852;2024-02-15T01:20:34;15.03;;;7.90;;
12122;SDS011;6125;59.628;17.852;2024-02-15T01:23:11;16.40;;;8.57;;
12122;SDS011;6125;59.628;17.852;2024-02-15T01:25:39;30.80;;;9.07;;
12122;SDS011;6125;59.628;17.852;2024-02-15T01:28:07;20.53;;;9.03;;
12122;SDS011;6125;59.628;17.852;2024-02-15T01:30:42;40.93;;;8.97;;
12122;SDS011;6125;59.628;17.852;2024-02-15T01:33:12;39.27;;;9.90;;
12122;SDS011;6125;59.628;17.852;2024-02-15T01:35:40;37.43;;;9.87;;
12122;SDS011;6125;59.628;17.852;2024-02-15T01:38:17;29.93;;;9.43;;
12122;SDS011;6125;59.628;17.852;2024-02-15T01:40:46;27.60;;;8.43;;
12122;SDS011;6125;59.628;17.852;2024-02-15T01:43:14;39.93;;;8.43;;
12122;SDS011;6125;59.628;17.852;2024-02-15T01:45:49;41.03;;;8.00;;
12122;SDS011;6125;59.628;17.852;2024-02-15T01:48:18;22.97;;;7.20;;
12122;SDS011;6125;59.628;17.852;2024-02-15T01:50:46;24.13;;;7.40;;
12122;SDS011;6125;59.628;17.852;2024-02-15T01:53:23;35.40;;;8.57;;
12122;SDS011;6125;59.628;17.852;2024-02-15T01:55:52;33.77;;;8.10;;
12122;SDS011;6125;59.628;17.852;2024-02-15T01:58:28;33.60;;;7.67;;
12122;SDS011;6125;59.628;17.852;2024-02-15T02:00:58;33.70;;;7.57;;
12122;SDS011;6125;59.628;17.852;2024-02-15T02:03:35;40.90;;;8.60;;
12122;SDS011;6125;59.628;17.852;2024-02-15T02:06:04;42.20;;;9.23;;
12122;SDS011;6125;59.628;17.852;2024-02-15T02:08:34;30.57;;;8.33;;
12122;SDS011;6125;59.628;17.852;2024-02-15T02:11:09;29.27;;;7.27;;
12122;SDS011;6125;59.628;17.852;2024-02-15T02:13:36;37.40;;;8.40;;
12122;SDS011;6125;59.628;17.852;2024-02-15T02:16:06;45.23;;;7.73;;
12122;SDS011;6125;59.628;17.852;2024-02-15T02:18:59;34.47;;;6.67;;
12122;SDS011;6125;59.628;17.852;2024-02-15T02:21:28;42.83;;;8.23;;
12122;SDS011;6125;59.628;17.852;2024-02-15T02:23:58;41.27;;;7.47;;
12122;SDS011;6125;59.628;17.852;2024-02-15T02:26:37;20.37;;;7.63;;
12122;SDS011;6125;59.628;17.852;2024-02-15T02:29:06;27.77;;;7.20;;
12122;SDS011;6125;59.628;17.852;2024-02-15T02:31:34;29.97;;;7.90;;
12122;SDS011;6125;59.628;17.852;2024-02-15T02:34:08;68.50;;;10.97;;
12122;SDS011;6125;59.628;17.852;2024-02-15T02:36:37;109.73;;;11.80;;
12122;SDS011;6125;59.628;17.852;2024-02-15T02:39:06;70.20;;;9.90;;
12122;SDS011;6125;59.628;17.852;2024-02-15T02:41:43;41.80;;;7.87;;
12122;SDS011;6125;59.628;17.852;2024-02-15T02:44:11;18.07;;;5.20;;
12122;SDS011;6125;59.628;17.852;2024-02-15T02:46:41;56.17;;;8.17;;
12122;SDS011;6125;59.628;17.852;2024-02-15T02:49:16;45.27;;;7.07;;
12122;SDS011;6125;59.628;17.852;2024-02-15T02:51:45;32.07;;;6.10;;
12122;SDS011;6125;59.628;17.852;2024-02-15T02:54:13;78.60;;;9.93;;
12122;SDS011;6125;59.628;17.852;2024-02-15T02:56:50;72.77;;;10.10;;
12122;SDS011;6125;59.628;17.852;2024-02-15T02:59:18;74.10;;;11.50;;
12122;SDS011;6125;59.628;17.852;2024-02-15T03:01:46;65.57;;;9.13;;
12122;SDS011;6125;59.628;17.852;2024-02-15T03:04:21;63.53;;;9.30;;
12122;SDS011;6125;59.628;17.852;2024-02-15T03:06:50;53.37;;;8.43;;
12122;SDS011;6125;59.628;17.852;2024-02-15T03:09:19;59.87;;;10.43;;
12122;SDS011;6125;59.628;17.852;2024-02-15T03:11:57;80.93;;;12.07;;
12122;SDS011;6125;59.628;17.852;2024-02-15T03:14:25;30.23;;;7.60;;
12122;SDS011;6125;59.628;17.852;2024-02-15T03:16:54;28.50;;;6.83;;
12122;SDS011;6125;59.628;17.852;2024-02-15T03:19:29;38.93;;;7.90;;
12122;SDS011;6125;59.628;17.852;2024-02-15T03:21:58;60.27;;;7.93;;
12122;SDS011;6125;59.628;17.852;2024-02-15T03:24:27;53.27;;;7.60;;
12122;SDS011;6125;59.628;17.852;2024-02-15T03:27:03;30.73;;;6.83;;
12122;SDS011;6125;59.628;17.852;2024-02-15T03:29:31;47.23;;;7.10;;
12122;SDS011;6125;59.628;17.852;2024-02-15T03:32:08;41.10;;;7.77;;
12122;SDS011;6125;59.628;17.852;2024-02-15T03:34:37;37.00;;;6.03;;
12122;SDS011;6125;59.628;17.852;2024-02-15T03:37:06;33.77;;;6.80;;
12122;SDS011;6125;59.628;17.852;2024-02-15T03:39:42;24.27;;;6.17;;
12122;SDS011;6125;59.628;17.852;2024-02-15T03:42:12;41.03;;;6.53;;
12122;SDS011;6125;59.628;17.852;2024-02-15T03:44:40;71.00;;;9.57;;
12122;SDS011;6125;59.628;17.852;2024-02-15T03:47:15;58.30;;;6.33;;
12122;SDS011;6125;59.628;17.852;2024-02-15T03:49:43;17.67;;;5.23;;
12122;SDS011;6125;59.628;17.852;2024-02-15T03:52:12;29.67;;;6.67;;
12122;SDS011;6125;59.628;17.852;2024-02-15T03:54:46;36.10;;;6.60;;
12122;SDS011;6125;59.628;17.852;2024-02-15T03:57:16;25.87;;;5.80;;
12122;SDS011;6125;59.628;17.852;2024-02-15T03:59:44;20.87;;;7.13;;
12122;SDS011;6125;59.628;17.852;2024-02-15T04:02:24;21.63;;;6.03;;
12122;SDS011;6125;59.628;17.852;2024-02-15T04:04:53;16.60;;;5.60;;
12122;SDS011;6125;59.628;17.852;2024-02-15T04:07:21;26.40;;;5.93;;
12122;SDS011;6125;59.628;17.852;2024-02-15T04:09:58;58.30;;;8.43;;
12122;SDS011;6125;59.628;17.852;2024-02-15T04:12:29;65.80;;;9.63;;
12122;SDS011;6125;59.628;17.852;2024-02-15T04:14:57;39.73;;;6.73;;
12122;SDS011;6125;59.628;17.852;2024-02-15T04:17:38;88.67;;;9.80;;
12122;SDS011;6125;59.628;17.852;2024-02-15T04:20:08;63.27;;;9.30;;
12122;SDS011;6125;59.628;17.852;2024-02-15T04:22:44;31.27;;;6.27;;
12122;SDS011;6125;59.628;17.852;2024-02-15T04:25:14;24.80;;;6.37;;
12122;SDS011;6125;59.628;17.852;2024-02-15T04:27:46;25.70;;;6.60;;
12122;SDS011;6125;59.628;17.852;2024-02-15T04:30:20;24.67;;;6.50;;
12122;SDS011;6125;59.628;17.852;2024-02-15T04:32:50;23.87;;;6.87;;
12122;SDS011;6125;59.628;17.852;2024-02-15T04:35:19;58.90;;;9.20;;
12122;SDS011;6125;59.628;17.852;2024-02-15T04:37:54;35.00;;;7.73;;
12122;SDS011;6125;59.628;17.852;2024-02-15T04:40:22;24.67;;;7.43;;
12122;SDS011;6125;59.628;17.852;2024-02-15T04:42:53;26.30;;;7.03;;
12122;SDS011;6125;59.628;17.852;2024-02-15T04:45:27;55.63;;;9.77;;
12122;SDS011;6125;59.628;17.852;2024-02-15T04:47:57;28.53;;;7.23;;
12122;SDS011;6125;59.628;17.852;2024-02-15T04:50:34;34.90;;;7.60;;
12122;SDS011;6125;59.628;17.852;2024-02-15T04:53:03;40.00;;;7.60;;
12122;SDS011;6125;59.628;17.852;2024-02-15T04:55:32;51.80;;;8.17;;
12122;SDS011;6125;59.628;17.852;2024-02-15T04:58:10;27.13;;;9.13;;
12122;SDS011;6125;59.628;17.852;2024-02-15T05:00:38;46.93;;;8.50;;
12122;SDS011;6125;59.628;17.852;2024-02-15T05:03:06;28.57;;;7.37;;
12122;SDS011;6125;59.628;17.852;2024-02-15T05:05:42;23.70;;;6.83;;
12122;SDS011;6125;59.628;17.852;2024-02-15T05:08:10;19.33;;;7.83;;
12122;SDS011;6125;59.628;17.852;2024-02-15T05:10:38;15.97;;;6.83;;
12122;SDS011;6125;59.628;17.852;2024-02-15T05:13:14;15.63;;;6.07;;
12122;SDS011;6125;59.628;17.852;2024-02-15T05:15:43;15.77;;;6.97;;
12122;SDS011;6125;59.628;17.852;2024-02-15T05:18:11;16.70;;;6.30;;
12122;SDS011;6125;59.628;17.852;2024-02-15T05:20:47;10.87;;;5.40;;
12122;SDS011;6125;59.628;17.852;2024-02-15T05:23:15;12.40;;;5.77;;
12122;SDS011;6125;59.628;17.852;2024-02-15T05:25:44;11.27;;;5.97;;
12122;SDS011;6125;59.628;17.852;2024-02-15T05:28:21;12.03;;;5.93;;
12122;SDS011;6125;59.628;17.852;2024-02-15T05:31:08;10.23;;;5.07;;
12122;SDS011;6125;59.628;17.852;2024-02-15T05:33:44;13.30;;;6.13;;
12122;SDS011;6125;59.628;17.852;2024-02-15T05:36:15;14.07;;;6.20;;
12122;SDS011;6125;59.628;17.852;2024-02-15T05:38:53;12.53;;;6.53;;
12122;SDS011;6125;59.628;17.852;2024-02-15T05:41:21;9.50;;;5.70;;
12122;SDS011;6125;59.628;17.852;2024-02-15T05:43:52;9.67;;;5.53;;
12122;SDS011;6125;59.628;17.852;2024-02-15T05:46:26;11.13;;;5.90;;
12122;SDS011;6125;59.628;17.852;2024-02-15T05:48:55;8.90;;;5.43;;
12122;SDS011;6125;59.628;17.852;2024-02-15T05:51:23;10.47;;;5.43;;
12122;SDS011;6125;59.628;17.852;2024-02-15T05:53:58;8.80;;;5.10;;
12122;SDS011;6125;59.628;17.852;2024-02-15T05:56:27;9.97;;;5.50;;
12122;SDS011;6125;59.628;17.852;2024-02-15T05:58:57;11.30;;;5.73;;
12122;SDS011;6125;59.628;17.852;2024-02-15T06:01:31;12.17;;;5.97;;
12122;SDS011;6125;59.628;17.852;2024-02-15T06:04:00;9.60;;;5.63;;
12122;SDS011;6125;59.628;17.852;2024-02-15T06:06:31;10.07;;;6.00;;
12122;SDS011;6125;59.628;17.852;2024-02-15T06:09:07;9.83;;;5.47;;
12122;SDS011;6125;59.628;17.852;2024-02-15T06:11:35;11.03;;;5.63;;
12122;SDS011;6125;59.628;17.852;2024-02-15T06:14:05;7.47;;;4.77;;
12122;SDS011;6125;59.628;17.852;2024-02-15T06:16:43;8.40;;;5.07;;
12122;SDS011;6125;59.628;17.852;2024-02-15T06:19:13;8.20;;;4.90;;
12122;SDS011;6125;59.628;17.852;2024-02-15T06:21:48;7.60;;;4.47;;
12122;SDS011;6125;59.628;17.852;2024-02-15T06:24:16;8.03;;;4.60;;
12122;SDS011;6125;59.628;17.852;2024-02-15T06:26:44;5.80;;;4.40;;
12122;SDS011;6125;59.628;17.852;2024-02-15T06:29:23;5.83;;;4.43;;
12122;SDS011;6125;59.628;17.852;2024-02-15T06:32:09;7.20;;;5.10;;
12122;SDS011;6125;59.628;17.852;2024-02-15T06:35:01;8.70;;;5.47;;
12122;SDS011;6125;59.628;17.852;2024-02-15T06:37:48;6.63;;;5.10;;
12122;SDS011;6125;59.628;17.852;2024-02-15T06:40:40;6.50;;;4.67;;
12122;SDS011;6125;59.628;17.852;2024-02-15T06:43:09;8.73;;;5.07;;
12122;SDS011;6125;59.628;17.852;2024-02-15T06:45:40;8.43;;;4.80;;
12122;SDS011;6125;59.628;17.852;2024-02-15T06:48:19;6.90;;;4.57;;
12122;SDS011;6125;59.628;17.852;2024-02-15T06:50:48;9.27;;;5.37;;
12122;SDS011;6125;59.628;17.852;2024-02-15T06:53:16;8.33;;;5.37;;
12122;SDS011;6125;59.628;17.852;2024-02-15T06:55:52;8.73;;;4.93;;
12122;SDS011;6125;59.628;17.852;2024-02-15T06:58:21;13.67;;;5.77;;
12122;SDS011;6125;59.628;17.852;2024-02-15T07:00:56;10.20;;;4.90;;
12122;SDS011;6125;59.628;17.852;2024-02-15T07:03:32;7.33;;;4.50;;
12122;SDS011;6125;59.628;17.852;2024-02-15T07:06:00;10.67;;;4.67;;
12122;SDS011;6125;59.628;17.852;2024-02-15T07:08:42;8.93;;;4.17;;
12122;SDS011;6125;59.628;17.852;2024-02-15T07:11:10;13.50;;;4.97;;
12122;SDS011;6125;59.628;17.852;2024-02-15T07:13:39;12.10;;;4.80;;
12122;SDS011;6125;59.628;17.852;2024-02-15T07:16:15;25.20;;;5.63;;
12122;SDS011;6125;59.628;17.852;2024-02-15T07:18:43;13.97;;;5.13;;
12122;SDS011;6125;59.628;17.852;2024-02-15T07:21:12;13.43;;;5.23;;
12122;SDS011;6125;59.628;17.852;2024-02-15T07:23:50;16.87;;;5.10;;
12122;SDS011;6125;59.628;17.852;2024-02-15T07:26:18;8.90;;;4.93;;
12122;SDS011;6125;59.628;17.852;2024-02-15T07:28:46;9.57;;;4.73;;
12122;SDS011;6125;59.628;17.852;2024-02-15T07:31:28;10.97;;;5.33;;
12122;SDS011;6125;59.628;17.852;2024-02-15T07:33:56;12.97;;;5.33;;
12122;SDS011;6125;59.628;17.852;2024-02-15T07:36:32;15.00;;;5.77;;
12122;SDS011;6125;59.628;17.852;2024-02-15T07:39:00;8.77;;;4.80;;
12122;SDS011;6125;59.628;17.852;2024-02-15T07:41:30;9.47;;;4.70;;
12122;SDS011;6125;59.628;17.852;2024-02-15T07:44:06;9.50;;;4.47;;
12122;SDS011;6125;59.628;17.852;2024-02-15T07:46:36;7.13;;;4.70;;
12122;SDS011;6125;59.628;17.852;2024-02-15T07:49:05;12.60;;;5.13;;
12122;SDS011;6125;59.628;17.852;2024-02-15T07:51:41;9.10;;;4.33;;
12122;SDS011;6125;59.628;17.852;2024-02-15T07:54:10;11.53;;;4.93;;
12122;SDS011;6125;59.628;17.852;2024-02-15T07:56:38;9.23;;;5.20;;
12122;SDS011;6125;59.628;17.852;2024-02-15T07:59:13;11.17;;;5.20;;
12122;SDS011;6125;59.628;17.852;2024-02-15T08:01:44;8.53;;;4.67;;
12122;SDS011;6125;59.628;17.852;2024-02-15T08:04:20;7.97;;;4.20;;
12122;SDS011;6125;59.628;17.852;2024-02-15T08:06:49;8.97;;;4.50;;
12122;SDS011;6125;59.628;17.852;2024-02-15T08:09:20;12.63;;;4.93;;
12122;SDS011;6125;59.628;17.852;2024-02-15T08:11:56;11.60;;;5.17;;
12122;SDS011;6125;59.628;17.852;2024-02-15T08:14:25;8.07;;;4.80;;
12122;SDS011;6125;59.628;17.852;2024-02-15T08:16:55;10.07;;;5.27;;
12122;SDS011;6125;59.628;17.852;2024-02-15T08:19:30;11.00;;;5.33;;
12122;SDS011;6125;59.628;17.852;2024-02-15T08:22:02;10.20;;;5.73;;
12122;SDS011;6125;59.628;17.852;2024-02-15T08:24:39;8.90;;;5.43;;
12122;SDS011;6125;59.628;17.852;2024-02-15T08:27:07;12.17;;;5.40;;
12122;SDS011;6125;59.628;17.852;2024-02-15T08:29:38;12.10;;;6.10;;
12122;SDS011;6125;59.628;17.852;2024-02-15T08:32:14;9.60;;;5.47;;
12122;SDS011;6125;59.628;17.852;2024-02-15T08:34:42;8.07;;;5.00;;
12122;SDS011;6125;59.628;17.852;2024-02-15T08:37:11;9.80;;;5.43;;
12122;SDS011;6125;59.628;17.852;2024-02-15T08:39:45;10.97;;;5.20;;
12122;SDS011;6125;59.628;17.852;2024-02-15T08:42:14;8.67;;;5.07;;
12122;SDS011;6125;59.628;17.852;2024-02-15T08:44:42;9.97;;;5.27;;
12122;SDS011;6125;59.628;17.852;2024-02-15T08:47:18;8.67;;;4.63;;
12122;SDS011;6125;59.628;17.852;2024-02-15T08:49:47;10.03;;;5.37;;
12122;SDS011;6125;59.628;17.852;2024-02-15T08:52:15;13.10;;;5.00;;
12122;SDS011;6125;59.628;17.852;2024-02-15T08:54:51;10.97;;;5.33;;
12122;SDS011;6125;59.628;17.852;2024-02-15T08:57:19;7.97;;;4.33;;
12122;SDS011;6125;59.628;17.852;2024-02-15T08:59:48;11.37;;;5.07;;
12122;SDS011;6125;59.628;17.852;2024-02-15T09:02:26;8.43;;;5.23;;
12122;SDS011;6125;59.628;17.852;2024-02-15T09:04:54;7.97;;;4.53;;
12122;SDS011;6125;59.628;17.852;2024-02-15T09:07:22;7.70;;;4.43;;
12122;SDS011;6125;59.628;17.852;2024-02-15T09:09:58;6.73;;;4.47;;
12122;SDS011;6125;59.628;17.852;2024-02-15T09:12:27;6.33;;;3.77;;
12122;SDS011;6125;59.628;17.852;2024-02-15T09:14:55;7.30;;;4.77;;
12122;SDS011;6125;59.628;17.852;2024-02-15T09:17:31;6.20;;;4.30;;
12122;SDS011;6125;59.628;17.852;2024-02-15T09:20:06;5.17;;;3.50;;
12122;SDS011;6125;59.628;17.852;2024-02-15T09:22:47;6.07;;;3.50;;
12122;SDS011;6125;59.628;17.852;2024-02-15T09:25:16;6.00;;;4.20;;
12122;SDS011;6125;59.628;17.852;2024-02-15T09:27:45;7.30;;;4.33;;
12122;SDS011;6125;59.628;17.852;2024-02-15T09:30:21;7.87;;;4.87;;
12122;SDS011;6125;59.628;17.852;2024-02-15T09:32:53;6.43;;;4.40;;
12122;SDS011;6125;59.628;17.852;2024-02-15T09:35:28;7.53;;;4.83;;
12122;SDS011;6125;59.628;17.852;2024-02-15T09:37:56;6.00;;;4.27;;
12122;SDS011;6125;59.628;17.852;2024-02-15T09:40:25;7.63;;;4.33;;
12122;SDS011;6125;59.628;17.852;2024-02-15T09:43:02;6.67;;;4.43;;
12122;SDS011;6125;59.628;17.852;2024-02-15T09:45:31;6.77;;;4.80;;
12122;SDS011;6125;59.628;17.852;2024-02-15T09:48:04;7.87;;;4.60;;
12122;SDS011;6125;59.628;17.852;2024-02-15T09:50:41;12.93;;;5.17;;
12122;SDS011;6125;59.628;17.852;2024-02-15T09:53:12;7.20;;;4.60;;
12122;SDS011;6125;59.628;17.852;2024-02-15T09:55:48;7.30;;;5.27;;
12122;SDS011;6125;59.628;17.852;2024-02-15T09:58:16;6.77;;;4.77;;
12122;SDS011;6125;59.628;17.852;2024-02-15T10:00:44;7.83;;;5.30;;
12122;SDS011;6125;59.628;17.852;2024-02-15T10:03:21;7.10;;;4.23;;
12122;SDS011;6125;59.628;17.852;2024-02-15T10:05:55;5.93;;;3.67;;
12122;SDS011;6125;59.628;17.852;2024-02-15T10:08:31;6.60;;;3.77;;
12122;SDS011;6125;59.628;17.852;2024-02-15T10:11:05;9.87;;;4.20;;
12122;SDS011;6125;59.628;17.852;2024-02-15T10:13:41;8.53;;;4.47;;
12122;SDS011;6125;59.628;17.852;2024-02-15T10:16:14;6.93;;;4.37;;
12122;SDS011;6125;59.628;17.852;2024-02-15T10:18:51;6.50;;;4.10;;
12122;SDS011;6125;59.628;17.852;2024-02-15T10:21:26;7.23;;;4.73;;
12122;SDS011;6125;59.628;17.852;2024-02-15T10:24:04;6.97;;;4.57;;
12122;SDS011;6125;59.628;17.852;2024-02-15T10:26:34;13.97;;;4.87;;
12122;SDS011;6125;59.628;17.852;2024-02-15T10:29:10;10.10;;;4.97;;
12122;SDS011;6125;59.628;17.852;2024-02-15T10:31:53;7.40;;;4.90;;
12122;SDS011;6125;59.628;17.852;2024-02-15T10:34:30;14.23;;;6.57;;
12122;SDS011;6125;59.628;17.852;2024-02-15T10:37:10;10.53;;;5.47;;
12122;SDS011;6125;59.628;17.852;2024-02-15T10:39:45;12.30;;;5.43;;
12122;SDS011;6125;59.628;17.852;2024-02-15T10:42:14;10.40;;;6.20;;
12122;SDS011;6125;59.628;17.852;2024-02-15T10:44:45;18.63;;;7.03;;
12122;SDS011;6125;59.628;17.852;2024-02-15T10:47:21;14.17;;;6.20;;
12122;SDS011;6125;59.628;17.852;2024-02-15T10:49:51;9.47;;;5.30;;
12122;SDS011;6125;59.628;17.852;2024-02-15T10:52:19;10.63;;;5.20;;
12122;SDS011;6125;59.628;17.852;2024-02-15T10:54:58;10.17;;;5.87;;
12122;SDS011;6125;59.628;17.852;2024-02-15T10:57:32;12.03;;;5.27;;
12122;SDS011;6125;59.628;17.852;2024-02-15T11:00:07;12.10;;;6.37;;
12122;SDS011;6125;59.628;17.852;2024-02-15T11:02:50;8.93;;;5.77;;
12122;SDS011;6125;59.628;17.852;2024-02-15T11:05:37;15.07;;;6.57;;
12122;SDS011;6125;59.628;17.852;2024-02-15T11:08:06;14.40;;;6.10;;
12122;SDS011;6125;59.628;17.852;2024-02-15T11:10:42;11.20;;;5.57;;
12122;SDS011;6125;59.628;17.852;2024-02-15T11:13:11;10.57;;;6.07;;
12122;SDS011;6125;59.628;17.852;2024-02-15T11:15:41;12.73;;;6.37;;
12122;SDS011;6125;59.628;17.852;2024-02-15T11:21:14;12.63;;;6.60;;
12122;SDS011;6125;59.628;17.852;2024-02-15T11:23:50;13.47;;;6.40;;
12122;SDS011;6125;59.628;17.852;2024-02-15T11:32:35;11.50;;;6.13;;
12122;SDS011;6125;59.628;17.852;2024-02-15T11:35:17;13.87;;;6.70;;
12122;SDS011;6125;59.628;17.852;2024-02-15T11:37:53;9.33;;;5.93;;
12122;SDS011;6125;59.628;17.852;2024-02-15T11:43:46;14.73;;;6.87;;
12122;SDS011;6125;59.628;17.852;2024-02-15T11:46:31;10.77;;;6.07;;
12122;SDS011;6125;59.628;17.852;2024-02-15T11:49:00;10.47;;;6.53;;
12122;SDS011;6125;59.628;17.852;2024-02-15T11:51:31;13.40;;;6.90;;
12122;SDS011;6125;59.628;17.852;2024-02-15T11:54:12;11.03;;;7.10;;
12122;SDS011;6125;59.628;17.852;2024-02-15T11:56:50;10.27;;;6.60;;
12122;SDS011;6125;59.628;17.852;2024-02-15T11:59:27;8.63;;;6.13;;
12122;SDS011;6125;59.628;17.852;2024-02-15T12:01:59;9.33;;;5.60;;
12122;SDS011;6125;59.628;17.852;2024-02-15T12:04:52;10.97;;;6.60;;
12122;SDS011;6125;59.628;17.852;2024-02-15T12:07:40;9.40;;;6.47;;
12122;SDS011;6125;59.628;17.852;2024-02-15T12:10:33;9.07;;;6.30;;
12122;SDS011;6125;59.628;17.852;2024-02-15T12:13:19;9.70;;;6.00;;
12122;SDS011;6125;59.628;17.852;2024-02-15T12:16:15;12.73;;;7.00;;
12122;SDS011;6125;59.628;17.852;2024-02-15T12:19:00;9.03;;;6.00;;
12122;SDS011;6125;59.628;17.852;2024-02-15T12:21:36;12.23;;;6.87;;
12122;SDS011;6125;59.628;17.852;2024-02-15T12:24:08;11.33;;;6.87;;
12122;SDS011;6125;59.628;17.852;2024-02-15T12:26:44;11.13;;;6.60;;
12122;SDS011;6125;59.628;17.852;2024-02-15T12:29:16;9.93;;;6.17;;
12122;SDS011;6125;59.628;17.852;2024-02-15T12:31:51;10.87;;;7.07;;
12122;SDS011;6125;59.628;17.852;2024-02-15T12:34:20;11.07;;;7.63;;
12122;SDS011;6125;59.628;17.852;2024-02-15T12:36:49;12.40;;;8.13;;
12122;SDS011;6125;59.628;17.852;2024-02-15T12:39:25;12.50;;;7.27;;
12122;SDS011;6125;59.628;17.852;2024-02-15T12:41:56;13.20;;;7.57;;
12122;SDS011;6125;59.628;17.852;2024-02-15T12:44:24;13.73;;;7.17;;
12122;SDS011;6125;59.628;17.852;2024-02-15T12:47:03;11.80;;;7.00;;
12122;SDS011;6125;59.628;17.852;2024-02-15T12:49:32;13.13;;;7.37;;
12122;SDS011;6125;59.628;17.852;2024-02-15T12:55:14;9.80;;;6.63;;
12122;SDS011;6125;59.628;17.852;2024-02-15T12:57:46;12.07;;;7.63;;
12122;SDS011;6125;59.628;17.852;2024-02-15T13:00:25;15.40;;;7.83;;
12122;SDS011;6125;59.628;17.852;2024-02-15T13:02:56;14.77;;;7.93;;
12122;SDS011;6125;59.628;17.852;2024-02-15T13:05:24;12.63;;;7.20;;
12122;SDS011;6125;59.628;17.852;2024-02-15T13:08:00;11.70;;;7.60;;
12122;SDS011;6125;59.628;17.852;2024-02-15T13:10:29;14.17;;;7.73;;
12122;SDS011;6125;59.628;17.852;2024-02-15T13:12:59;12.53;;;7.57;;
12122;SDS011;6125;59.628;17.852;2024-02-15T13:15:34;12.13;;;7.17;;
12122;SDS011;6125;59.628;17.852;2024-02-15T13:18:04;9.53;;;6.70;;
12122;SDS011;6125;59.628;17.852;2024-02-15T13:20:32;9.63;;;6.37;;
12122;SDS011;6125;59.628;17.852;2024-02-15T13:23:10;10.03;;;7.13;;
12122;SDS011;6125;59.628;17.852;2024-02-15T13:25:46;12.73;;;7.50;;
12122;SDS011;6125;59.628;17.852;2024-02-15T13:28:22;10.87;;;7.53;;
12122;SDS011;6125;59.628;17.852;2024-02-15T13:30:51;14.10;;;8.17;;
12122;SDS011;6125;59.628;17.852;2024-02-15T13:33:29;20.17;;;9.13;;
12122;SDS011;6125;59.628;17.852;2024-02-15T13:35:58;14.13;;;8.23;;
12122;SDS011;6125;59.628;17.852;2024-02-15T13:38:27;12.43;;;8.13;;
12122;SDS011;6125;59.628;17.852;2024-02-15T13:41:02;12.43;;;6.93;;
12122;SDS011;6125;59.628;17.852;2024-02-15T13:43:32;14.83;;;8.43;;
12122;SDS011;6125;59.628;17.852;2024-02-15T13:46:00;12.73;;;8.33;;
12122;SDS011;6125;59.628;17.852;2024-02-15T13:48:35;14.17;;;7.87;;
12122;SDS011;6125;59.628;17.852;2024-02-15T13:51:04;18.37;;;8.53;;
12122;SDS011;6125;59.628;17.852;2024-02-15T13:53:42;16.87;;;8.47;;
12122;SDS011;6125;59.628;17.852;2024-02-15T13:56:24;18.30;;;7.93;;
12122;SDS011;6125;59.628;17.852;2024-02-15T13:59:00;20.20;;;8.37;;
12122;SDS011;6125;59.628;17.852;2024-02-15T14:01:36;16.23;;;9.00;;
12122;SDS011;6125;59.628;17.852;2024-02-15T14:04:18;17.33;;;8.37;;
12122;SDS011;6125;59.628;17.852;2024-02-15T14:06:46;14.60;;;8.73;;
12122;SDS011;6125;59.628;17.852;2024-02-15T14:09:15;19.10;;;9.13;;
12122;SDS011;6125;59.628;17.852;2024-02-15T14:11:50;16.13;;;9.07;;
12122;SDS011;6125;59.628;17.852;2024-02-15T14:14:20;18.87;;;9.77;;
12122;SDS011;6125;59.628;17.852;2024-02-15T14:16:48;18.37;;;8.53;;
12122;SDS011;6125;59.628;17.852;2024-02-15T14:19:23;19.13;;;9.27;;
12122;SDS011;6125;59.628;17.852;2024-02-15T14:21:53;14.00;;;8.53;;
12122;SDS011;6125;59.628;17.852;2024-02-15T14:24:22;24.40;;;9.73;;
12122;SDS011;6125;59.628;17.852;2024-02-15T14:26:57;20.47;;;8.10;;
12122;SDS011;6125;59.628;17.852;2024-02-15T14:29:26;17.33;;;7.03;;
12122;SDS011;6125;59.628;17.852;2024-02-15T14:32:06;20.80;;;7.90;;
12122;SDS011;6125;59.628;17.852;2024-02-15T14:35:06;24.43;;;7.87;;
12122;SDS011;6125;59.628;17.852;2024-02-15T14:37:41;16.27;;;7.67;;
12122;SDS011;6125;59.628;17.852;2024-02-15T14:40:10;17.47;;;8.43;;
12122;SDS011;6125;59.628;17.852;2024-02-15T14:42:53;31.13;;;8.67;;
12122;SDS011;6125;59.628;17.852;2024-02-15T14:45:24;28.30;;;9.10;;
12122;SDS011;6125;59.628;17.852;2024-02-15T14:48:01;40.57;;;9.73;;
12122;SDS011;6125;59.628;17.852;2024-02-15T14:50:30;24.77;;;11.00;;
12122;SDS011;6125;59.628;17.852;2024-02-15T14:52:58;21.07;;;9.60;;
12122;SDS011;6125;59.628;17.852;2024-02-15T14:55:33;25.43;;;8.57;;
12122;SDS011;6125;59.628;17.852;2024-02-15T14:58:01;27.07;;;9.90;;
12122;SDS011;6125;59.628;17.852;2024-02-15T15:00:31;27.33;;;9.37;;
12122;SDS011;6125;59.628;17.852;2024-02-15T15:03:06;33.70;;;8.87;;
12122;SDS011;6125;59.628;17.852;2024-02-15T15:05:34;29.50;;;8.37;;
12122;SDS011;6125;59.628;17.852;2024-02-15T15:08:27;32.33;;;9.47;;
12122;SDS011;6125;59.628;17.852;2024-02-15T15:11:14;20.40;;;7.50;;
12122;SDS011;6125;59.628;17.852;2024-02-15T15:14:06;25.00;;;8.40;;
12122;SDS011;6125;59.628;17.852;2024-02-15T15:16:36;36.03;;;8.67;;
12122;SDS011;6125;59.628;17.852;2024-02-15T15:19:05;32.03;;;8.17;;
12122;SDS011;6125;59.628;17.852;2024-02-15T15:21:40;22.53;;;8.33;;
12122;SDS011;6125;59.628;17.852;2024-02-15T15:24:09;33.67;;;8.00;;
12122;SDS011;6125;59.628;17.852;2024-02-15T15:26:38;34.13;;;7.87;;
12122;SDS011;6125;59.628;17.852;2024-02-15T15:29:14;17.47;;;7.70;;